createdAt,value
2023-02-08T01:32:29.110Z,12.90
2023-02-08T01:35:30.703Z,12.10
2023-02-08T01:38:34.700Z,13.90
2023-02-08T01:41:38.724Z,11.40
2023-02-08T01:45:17.685Z,12.10
2023-02-08T01:48:43.692Z,11.30
2023-02-08T01:51:47.724Z,12.20
2023-02-08T01:54:53.741Z,12.70
2023-02-08T01:57:55.758Z,12.40
2023-02-08T02:01:02.761Z,12.30
2023-02-08T02:04:07.217Z,13.00
2023-02-08T02:07:10.763Z,12.50
2023-02-08T02:10:17.710Z,13.10
2023-02-08T02:13:27.763Z,13.10
2023-02-08T02:16:29.781Z,12.80
2023-02-08T02:19:38.813Z,13.80
2023-02-08T02:22:46.817Z,13.10
2023-02-08T02:26:01.014Z,12.80
2023-02-08T02:29:18.768Z,14.70
2023-02-08T02:32:46.787Z,14.10
2023-02-08T02:36:11.831Z,14.20
2023-02-08T02:39:35.774Z,13.40
2023-02-08T02:43:20.928Z,13.10
2023-02-08T02:46:49.728Z,12.10
2023-02-08T02:50:05.857Z,14.80
2023-02-08T02:53:12.837Z,12.30
2023-02-08T02:56:19.891Z,14.50
2023-02-08T02:59:28.811Z,12.60
2023-02-08T03:02:30.846Z,14.20
2023-02-08T03:05:35.858Z,14.60
2023-02-08T03:08:58.829Z,15.00
2023-02-08T03:12:08.820Z,14.50
2023-02-08T03:15:35.958Z,15.40
2023-02-08T03:19:02.850Z,12.90
2023-02-08T03:22:10.883Z,15.60
2023-02-08T03:25:21.847Z,14.80
2023-02-08T03:28:41.845Z,15.60
2023-02-08T03:31:48.985Z,13.90
2023-02-08T03:35:26.891Z,14.50
2023-02-08T03:38:35.868Z,14.00
2023-02-08T03:41:43.936Z,15.50
2023-02-08T03:44:52.996Z,12.90
2023-02-08T03:47:55.005Z,13.30
2023-02-08T03:51:02.957Z,14.20
2023-02-08T03:54:04.944Z,15.40
2023-02-08T03:57:14.926Z,15.10
2023-02-08T04:00:24.911Z,16.10
2023-02-08T04:03:34.953Z,14.20
2023-02-08T04:06:36.959Z,16.70
2023-02-08T04:09:39.950Z,14.20
2023-02-08T04:12:42.104Z,15.30
2023-02-08T04:15:43.987Z,14.50
2023-02-08T04:18:46.022Z,14.20
2023-02-08T04:21:49.009Z,14.80
2023-02-08T04:24:52.982Z,16.00
2023-02-08T04:27:54.994Z,14.90
2023-02-08T04:30:57.126Z,15.00
2023-02-08T04:33:59.970Z,14.20
2023-02-08T04:37:04.005Z,15.60
2023-02-08T04:40:05.971Z,16.30
2023-02-08T04:43:00.997Z,16.20
2023-02-08T04:45:43.084Z,18.30
2023-02-08T04:48:33.020Z,17.10
2023-02-08T04:51:21.001Z,16.80
2023-02-08T04:54:16.157Z,18.20
2023-02-08T04:57:19.209Z,18.20
2023-02-08T05:00:26.144Z,17.10
2023-02-08T05:03:29.066Z,17.70
2023-02-08T05:06:31.988Z,18.50
2023-02-08T05:09:34.441Z,15.90
2023-02-08T05:12:39.070Z,18.10
2023-02-08T05:15:42.526Z,19.40
2023-02-08T05:18:46.063Z,19.50
2023-02-08T05:21:48.093Z,20.30
2023-02-08T05:24:51.057Z,18.70
2023-02-08T05:27:54.132Z,18.10
2023-02-08T05:30:56.146Z,18.70
2023-02-08T05:37:00.050Z,16.20
2023-02-08T05:40:03.118Z,17.40
2023-02-08T05:43:06.104Z,17.10
2023-02-08T05:49:11.331Z,15.00
2023-02-08T05:52:14.087Z,19.80
2023-02-08T05:55:17.282Z,17.50
2023-02-08T05:58:20.112Z,18.90
2023-02-08T06:01:27.225Z,18.80
2023-02-08T06:04:30.124Z,18.10
2023-02-08T06:07:32.125Z,19.50
2023-02-08T06:10:34.168Z,20.60
2023-02-08T06:13:36.229Z,19.20
2023-02-08T06:16:39.178Z,17.10
2023-02-08T06:19:43.165Z,22.20
2023-02-08T06:22:52.146Z,19.10
2023-02-08T06:25:49.201Z,22.60
2023-02-08T06:29:13.245Z,20.60
2023-02-08T06:32:18.050Z,19.50
2023-02-08T06:35:23.393Z,21.10
2023-02-08T06:38:27.215Z,18.30
2023-02-08T06:41:32.295Z,18.80
2023-02-08T06:44:34.452Z,16.20
2023-02-08T06:47:42.465Z,16.20
2023-02-08T06:50:45.172Z,16.60
2023-02-08T06:53:47.755Z,16.40
2023-02-08T06:56:49.252Z,17.00
2023-02-08T06:59:51.380Z,16.80
2023-02-08T10:24:14.978Z,18.10
2023-02-08T10:27:25.018Z,17.20
2023-02-08T10:30:36.520Z,17.10
2023-02-08T10:34:08.669Z,18.50
2023-02-08T10:37:10.032Z,20.20
2023-02-08T10:40:13.120Z,19.10
2023-02-08T10:43:37.104Z,18.20
2023-02-08T10:46:51.080Z,19.60
2023-02-08T10:50:02.669Z,18.10
2023-02-08T10:53:04.094Z,17.90
2023-02-08T10:56:04.077Z,18.50
2023-02-08T10:59:08.092Z,17.20
2023-02-08T11:02:09.063Z,17.50
2023-02-08T11:05:12.153Z,17.80
2023-02-08T11:08:26.219Z,18.30
2023-02-08T11:11:26.559Z,17.70
2023-02-08T11:14:45.471Z,17.50
2023-02-08T11:17:49.104Z,17.80
2023-02-08T11:20:52.143Z,18.30
2023-02-08T11:23:58.700Z,17.20
2023-02-08T11:27:00.167Z,15.70
2023-02-08T11:30:02.132Z,15.50
2023-02-08T11:33:22.173Z,14.30
2023-02-08T11:36:29.057Z,14.90
2023-02-08T11:39:35.180Z,14.70
2023-02-08T11:42:38.194Z,14.40
2023-02-08T11:45:42.558Z,15.20
2023-02-08T11:48:57.245Z,15.20
2023-02-08T11:51:59.150Z,15.20
2023-02-08T11:55:01.354Z,14.50
2023-02-08T11:58:15.169Z,16.00
2023-02-08T12:01:30.238Z,15.60
2023-02-08T12:04:31.296Z,14.10
2023-02-08T12:07:44.175Z,15.60
2023-02-08T12:10:56.216Z,16.30
2023-02-08T12:17:06.226Z,13.00
2023-02-08T12:20:22.186Z,15.20
2023-02-08T12:23:32.233Z,15.60
2023-02-08T12:26:41.179Z,14.10
2023-02-08T12:29:57.260Z,13.80
2023-02-08T12:33:19.344Z,13.80
2023-02-08T12:36:30.463Z,14.40
2023-02-08T12:40:02.432Z,13.60
2023-02-08T12:43:02.529Z,15.00
2023-02-08T12:46:39.318Z,13.30
2023-02-08T12:50:02.423Z,14.10
2023-02-08T12:53:09.291Z,13.60
2023-02-08T12:56:22.318Z,14.20
2023-02-08T12:59:38.331Z,13.20
2023-02-08T13:02:52.301Z,14.30
2023-02-08T13:06:02.141Z,14.70
2023-02-08T13:09:59.318Z,13.90
2023-02-08T13:13:03.294Z,13.10
2023-02-08T13:16:16.453Z,13.80
2023-02-08T13:20:00.643Z,13.30
2023-02-08T13:23:02.433Z,14.00
2023-02-08T13:26:05.316Z,14.50
2023-02-08T13:32:15.295Z,14.00
2023-02-08T13:35:33.365Z,13.70
2023-02-08T13:38:43.328Z,13.00
2023-02-08T13:41:45.321Z,14.10
2023-02-08T13:44:51.364Z,13.20
2023-02-08T13:48:01.731Z,14.00
2023-02-08T13:51:07.371Z,12.70
2023-02-08T13:54:09.248Z,13.90
2023-02-08T13:57:13.479Z,13.10
2023-02-08T14:00:49.516Z,13.00
2023-02-08T14:03:53.545Z,12.30
2023-02-08T14:07:06.644Z,11.40
2023-02-08T14:10:21.621Z,11.40
2023-02-08T14:13:52.523Z,12.10
2023-02-08T14:16:57.391Z,11.60
2023-02-08T14:19:59.823Z,12.40
2023-02-08T14:23:15.268Z,11.70
2023-02-08T14:26:21.427Z,13.20
2023-02-08T14:29:39.054Z,13.70
2023-02-08T14:32:44.620Z,13.50
2023-02-08T14:35:47.792Z,12.90
2023-02-08T14:39:39.442Z,13.70
2023-02-08T14:43:08.461Z,13.50
2023-02-08T14:46:51.764Z,14.10
2023-02-08T14:49:53.567Z,12.30
2023-02-08T14:53:02.685Z,13.90
2023-02-08T14:56:16.853Z,15.20
2023-02-08T14:59:28.525Z,12.90
2023-02-08T15:02:37.504Z,11.50
2023-02-08T15:05:44.732Z,12.60
2023-02-08T15:08:49.308Z,11.40
2023-02-08T15:11:54.546Z,13.70
2023-02-08T15:14:56.478Z,10.80
2023-02-08T15:20:59.570Z,10.90
2023-02-08T15:24:14.069Z,11.30
2023-02-08T15:30:16.484Z,11.60
2023-02-08T15:37:31.182Z,12.90
2023-02-08T15:40:43.964Z,15.10
2023-02-08T15:43:47.544Z,14.60
2023-02-08T15:46:49.564Z,11.40
2023-02-08T15:52:58.548Z,14.60
2023-02-08T15:56:08.175Z,17.30
2023-02-08T15:59:10.633Z,20.30
2023-02-08T16:02:10.597Z,18.80
2023-02-08T16:05:12.573Z,18.80
2023-02-08T19:21:36.946Z,30.50
2023-02-08T19:24:38.334Z,27.70
2023-02-08T19:27:39.365Z,25.60
2023-02-08T19:30:39.391Z,28.20
2023-02-08T19:33:39.330Z,29.60
2023-02-08T19:36:41.411Z,28.80
2023-02-08T19:39:44.503Z,25.70
2023-02-08T19:42:46.405Z,27.30
2023-02-08T19:45:50.445Z,28.50
2023-02-08T19:48:50.347Z,27.00
2023-02-08T19:51:54.002Z,26.30
2023-02-08T19:54:55.388Z,26.30
2023-02-08T19:58:02.918Z,27.60
2023-02-08T20:01:03.376Z,27.80
2023-02-08T20:04:05.293Z,25.90
2023-02-08T20:07:06.394Z,27.20
2023-02-08T20:10:06.470Z,28.20
2023-02-08T20:13:07.440Z,27.20
2023-02-08T20:16:12.543Z,24.20
2023-02-08T20:19:17.702Z,28.90
2023-02-08T20:22:18.701Z,26.10
2023-02-08T20:25:29.636Z,26.90
2023-02-08T20:28:32.578Z,27.90
2023-02-08T20:31:38.477Z,26.30
2023-02-08T20:34:53.996Z,26.60
2023-02-08T20:38:01.482Z,30.60
2023-02-08T20:41:02.445Z,31.80
2023-02-08T20:44:05.482Z,42.70
2023-02-08T20:47:07.450Z,38.90
2023-02-08T20:50:18.170Z,43.00
2023-02-08T20:53:20.602Z,39.20
2023-02-08T20:56:28.072Z,27.70
2023-02-08T20:59:31.538Z,31.20
2023-02-08T21:02:36.709Z,36.90
2023-02-08T21:05:38.769Z,39.60
2023-02-08T21:09:04.867Z,37.40
2023-02-08T21:12:07.585Z,37.20
2023-02-08T21:15:08.820Z,30.00
2023-02-08T21:18:13.322Z,29.40
2023-02-08T21:21:13.535Z,26.70
2023-02-08T21:24:19.009Z,24.80
2023-02-08T21:27:24.728Z,25.90
2023-02-08T21:30:27.679Z,36.40
2023-02-08T21:33:29.851Z,35.00
2023-02-08T21:36:34.529Z,33.20
2023-02-08T21:39:36.543Z,33.50
2023-02-08T21:42:40.194Z,28.60
2023-02-08T21:45:43.645Z,28.80
2023-02-08T21:49:02.545Z,26.20
2023-02-08T21:52:22.562Z,24.80
2023-02-08T21:55:29.088Z,25.60
2023-02-08T21:58:36.149Z,27.60
2023-02-08T22:01:40.183Z,24.70
2023-02-08T22:05:08.554Z,21.80
2023-02-08T22:08:23.865Z,25.50
2023-02-08T22:14:58.594Z,27.10
2023-02-08T22:18:11.077Z,29.20
2023-02-08T22:21:15.907Z,27.40
2023-02-08T22:24:18.912Z,25.60
2023-02-08T22:27:18.639Z,27.90
2023-02-08T22:30:22.831Z,25.40
2023-02-08T22:33:24.731Z,24.00
2023-02-08T22:36:24.694Z,22.70
2023-02-08T22:39:25.650Z,21.90
2023-02-08T22:42:28.662Z,24.10
2023-02-08T22:45:29.660Z,24.10
2023-02-08T22:48:30.040Z,24.70
2023-02-08T22:51:30.676Z,23.40
2023-02-08T22:54:32.670Z,24.70
2023-02-08T22:57:33.690Z,28.50
2023-02-08T23:00:33.662Z,25.30
2023-02-08T23:03:33.652Z,27.80
2023-02-08T23:06:34.749Z,29.60
2023-02-08T23:09:37.682Z,28.00
2023-02-08T23:12:40.951Z,33.20
2023-02-08T23:15:41.744Z,33.40
2023-02-08T23:18:42.704Z,35.20
2023-02-08T23:21:42.663Z,35.30
2023-02-08T23:24:45.957Z,36.20
2023-02-08T23:27:38.821Z,32.50
2023-02-08T23:30:38.756Z,34.00
2023-02-08T23:33:38.711Z,31.60
2023-02-08T23:36:38.789Z,35.00
2023-02-08T23:39:38.780Z,29.70
2023-02-08T23:42:39.723Z,30.60
2023-02-08T23:45:39.729Z,28.50
2023-02-08T23:48:39.752Z,30.90
2023-02-08T23:51:39.793Z,32.10
2023-02-08T23:54:40.901Z,30.00
2023-02-08T23:57:48.765Z,29.90
